sensor_id;sensor_type;location;lat;lon;timestamp;temperature;humidity
59923;DHT22;45778;51.142;3.732;2022-12-18T00:01:57;-3.80;99.90
59923;DHT22;45778;51.142;3.732;2022-12-18T00:04:26;-3.80;99.90
59923;DHT22;45778;51.142;3.732;2022-12-18T00:06:52;-3.90;99.90
59923;DHT22;45778;51.142;3.732;2022-12-18T00:09:18;-3.80;99.90
59923;DHT22;45778;51.142;3.732;2022-12-18T00:11:44;-3.90;99.90
59923;DHT22;45778;51.142;3.732;2022-12-18T00:14:13;-4.00;99.90
59923;DHT22;45778;51.142;3.732;2022-12-18T00:16:42;-4.00;99.90
59923;DHT22;45778;51.142;3.732;2022-12-18T00:19:09;-4.00;99.90
59923;DHT22;45778;51.142;3.732;2022-12-18T00:21:35;-4.10;99.90
59923;DHT22;45778;51.142;3.732;2022-12-18T00:24:01;-4.20;99.90
59923;DHT22;45778;51.142;3.732;2022-12-18T00:26:29;-4.20;99.90
59923;DHT22;45778;51.142;3.732;2022-12-18T00:29:01;-4.40;99.90
59923;DHT22;45778;51.142;3.732;2022-12-18T00:31:27;-4.60;99.90
59923;DHT22;45778;51.142;3.732;2022-12-18T00:33:54;-4.70;99.90
59923;DHT22;45778;51.142;3.732;2022-12-18T00:36:23;-4.70;99.90
59923;DHT22;45778;51.142;3.732;2022-12-18T00:38:50;-4.80;99.90
59923;DHT22;45778;51.142;3.732;2022-12-18T00:41:17;-4.70;99.90
59923;DHT22;45778;51.142;3.732;2022-12-18T00:44:03;-4.60;99.90
59923;DHT22;45778;51.142;3.732;2022-12-18T00:46:30;-4.60;99.90
59923;DHT22;45778;51.142;3.732;2022-12-18T00:48:56;-4.50;99.90
59923;DHT22;45778;51.142;3.732;2022-12-18T00:51:22;-4.50;99.90
59923;DHT22;45778;51.142;3.732;2022-12-18T00:53:48;-4.50;99.90
59923;DHT22;45778;51.142;3.732;2022-12-18T00:56:14;-4.40;99.90
59923;DHT22;45778;51.142;3.732;2022-12-18T00:58:40;-3.80;99.90
59923;DHT22;45778;51.142;3.732;2022-12-18T01:01:06;-4.20;99.90
59923;DHT22;45778;51.142;3.732;2022-12-18T01:03:32;-3.90;99.90
59923;DHT22;45778;51.142;3.732;2022-12-18T01:05:58;-4.50;99.90
59923;DHT22;45778;51.142;3.732;2022-12-18T01:08:24;-4.60;99.90
59923;DHT22;45778;51.142;3.732;2022-12-18T01:10:49;-4.70;99.90
59923;DHT22;45778;51.142;3.732;2022-12-18T01:13:15;-4.70;99.90
59923;DHT22;45778;51.142;3.732;2022-12-18T01:15:48;-4.60;99.90
59923;DHT22;45778;51.142;3.732;2022-12-18T01:18:14;-4.50;99.90
59923;DHT22;45778;51.142;3.732;2022-12-18T01:20:40;-4.60;99.90
59923;DHT22;45778;51.142;3.732;2022-12-18T01:23:05;-4.20;99.90
59923;DHT22;45778;51.142;3.732;2022-12-18T01:25:32;-4.50;99.90
59923;DHT22;45778;51.142;3.732;2022-12-18T01:27:58;-4.50;99.90
59923;DHT22;45778;51.142;3.732;2022-12-18T01:30:24;-4.50;99.90
59923;DHT22;45778;51.142;3.732;2022-12-18T01:32:49;-4.50;99.90
59923;DHT22;45778;51.142;3.732;2022-12-18T01:35:15;-4.30;99.90
59923;DHT22;45778;51.142;3.732;2022-12-18T01:37:41;-4.50;99.90
59923;DHT22;45778;51.142;3.732;2022-12-18T01:40:07;-4.60;99.90
59923;DHT22;45778;51.142;3.732;2022-12-18T01:42:33;-4.70;99.90
59923;DHT22;45778;51.142;3.732;2022-12-18T01:47:35;-4.80;99.90
59923;DHT22;45778;51.142;3.732;2022-12-18T01:52:59;-4.80;99.90
59923;DHT22;45778;51.142;3.732;2022-12-18T01:55:30;-4.70;99.90
59923;DHT22;45778;51.142;3.732;2022-12-18T01:57:58;-4.70;99.90
59923;DHT22;45778;51.142;3.732;2022-12-18T02:00:25;-4.70;99.90
59923;DHT22;45778;51.142;3.732;2022-12-18T02:02:52;-4.70;99.90
59923;DHT22;45778;51.142;3.732;2022-12-18T02:05:40;-4.70;99.90
59923;DHT22;45778;51.142;3.732;2022-12-18T02:08:22;-4.70;99.90
59923;DHT22;45778;51.142;3.732;2022-12-18T02:13:27;-4.70;99.90
59923;DHT22;45778;51.142;3.732;2022-12-18T02:18:47;-4.90;99.90
59923;DHT22;45778;51.142;3.732;2022-12-18T02:26:55;-5.00;99.90
59923;DHT22;45778;51.142;3.732;2022-12-18T02:29:25;-4.90;99.90
59923;DHT22;45778;51.142;3.732;2022-12-18T02:31:56;-4.90;99.90
59923;DHT22;45778;51.142;3.732;2022-12-18T02:34:27;-4.90;99.90
59923;DHT22;45778;51.142;3.732;2022-12-18T02:36:54;-4.80;99.90
59923;DHT22;45778;51.142;3.732;2022-12-18T02:39:24;-4.60;99.90
59923;DHT22;45778;51.142;3.732;2022-12-18T02:41:51;-4.70;99.90
59923;DHT22;45778;51.142;3.732;2022-12-18T02:44:17;-4.80;99.90
59923;DHT22;45778;51.142;3.732;2022-12-18T02:46:50;-4.70;99.90
59923;DHT22;45778;51.142;3.732;2022-12-18T02:49:31;-4.60;99.90
59923;DHT22;45778;51.142;3.732;2022-12-18T02:52:13;-4.70;99.90
59923;DHT22;45778;51.142;3.732;2022-12-18T02:57:31;-4.60;99.90
59923;DHT22;45778;51.142;3.732;2022-12-18T03:02:48;-4.70;99.90
59923;DHT22;45778;51.142;3.732;2022-12-18T03:05:17;-4.60;99.90
59923;DHT22;45778;51.142;3.732;2022-12-18T03:07:55;-4.70;99.90
59923;DHT22;45778;51.142;3.732;2022-12-18T03:10:26;-4.70;99.90
59923;DHT22;45778;51.142;3.732;2022-12-18T03:13:10;-4.70;99.90
59923;DHT22;45778;51.142;3.732;2022-12-18T03:15:46;-4.10;99.90
59923;DHT22;45778;51.142;3.732;2022-12-18T03:18:39;-4.60;99.90
59923;DHT22;45778;51.142;3.732;2022-12-18T03:21:08;-4.70;99.90
59923;DHT22;45778;51.142;3.732;2022-12-18T03:23:45;-4.80;99.90
59923;DHT22;45778;51.142;3.732;2022-12-18T03:26:16;-4.80;99.90
59923;DHT22;45778;51.142;3.732;2022-12-18T03:28:59;-4.80;99.90
59923;DHT22;45778;51.142;3.732;2022-12-18T03:31:29;-4.90;99.90
59923;DHT22;45778;51.142;3.732;2022-12-18T03:34:01;-4.90;99.90
59923;DHT22;45778;51.142;3.732;2022-12-18T03:36:29;-4.90;99.90
59923;DHT22;45778;51.142;3.732;2022-12-18T03:38:55;-4.80;99.90
59923;DHT22;45778;51.142;3.732;2022-12-18T03:41:27;-4.90;99.90
59923;DHT22;45778;51.142;3.732;2022-12-18T03:44:21;-4.90;99.90
59923;DHT22;45778;51.142;3.732;2022-12-18T03:47:17;-4.90;99.90
59923;DHT22;45778;51.142;3.732;2022-12-18T03:52:57;-4.90;99.90
59923;DHT22;45778;51.142;3.732;2022-12-18T03:55:28;-4.90;99.90
59923;DHT22;45778;51.142;3.732;2022-12-18T03:57:57;-5.00;99.90
59923;DHT22;45778;51.142;3.732;2022-12-18T04:00:23;-5.00;99.90
59923;DHT22;45778;51.142;3.732;2022-12-18T04:02:53;-4.90;99.90
59923;DHT22;45778;51.142;3.732;2022-12-18T04:05:20;-5.10;99.90
59923;DHT22;45778;51.142;3.732;2022-12-18T04:07:48;-5.20;99.90
59923;DHT22;45778;51.142;3.732;2022-12-18T04:10:16;-5.10;99.90
59923;DHT22;45778;51.142;3.732;2022-12-18T04:12:42;-5.20;99.90
59923;DHT22;45778;51.142;3.732;2022-12-18T04:15:08;-5.20;99.90
59923;DHT22;45778;51.142;3.732;2022-12-18T04:17:34;-5.10;99.90
59923;DHT22;45778;51.142;3.732;2022-12-18T04:20:00;-5.00;99.90
59923;DHT22;45778;51.142;3.732;2022-12-18T04:22:27;-5.10;99.90
59923;DHT22;45778;51.142;3.732;2022-12-18T04:24:52;-4.80;99.90
59923;DHT22;45778;51.142;3.732;2022-12-18T04:27:18;-4.80;99.90
59923;DHT22;45778;51.142;3.732;2022-12-18T04:29:44;-4.80;99.90
59923;DHT22;45778;51.142;3.732;2022-12-18T04:32:09;-4.90;99.90
59923;DHT22;45778;51.142;3.732;2022-12-18T04:34:35;-4.90;99.90
59923;DHT22;45778;51.142;3.732;2022-12-18T04:37:01;-4.30;99.90
59923;DHT22;45778;51.142;3.732;2022-12-18T04:39:27;-4.80;99.90
59923;DHT22;45778;51.142;3.732;2022-12-18T04:41:52;-4.80;99.90
59923;DHT22;45778;51.142;3.732;2022-12-18T04:44:18;-4.60;99.90
59923;DHT22;45778;51.142;3.732;2022-12-18T04:46:44;-4.80;99.90
59923;DHT22;45778;51.142;3.732;2022-12-18T04:49:10;-4.80;99.90
59923;DHT22;45778;51.142;3.732;2022-12-18T04:51:36;-4.80;99.90
59923;DHT22;45778;51.142;3.732;2022-12-18T04:54:02;-4.90;99.90
59923;DHT22;45778;51.142;3.732;2022-12-18T04:56:29;-4.90;99.90
59923;DHT22;45778;51.142;3.732;2022-12-18T04:58:55;-4.90;99.90
59923;DHT22;45778;51.142;3.732;2022-12-18T05:01:21;-4.90;99.90
59923;DHT22;45778;51.142;3.732;2022-12-18T05:03:47;-4.90;99.90
59923;DHT22;45778;51.142;3.732;2022-12-18T05:06:13;-4.90;99.90
59923;DHT22;45778;51.142;3.732;2022-12-18T05:08:38;-4.90;99.90
59923;DHT22;45778;51.142;3.732;2022-12-18T05:11:09;-4.90;99.90
59923;DHT22;45778;51.142;3.732;2022-12-18T05:13:35;-4.90;99.90
59923;DHT22;45778;51.142;3.732;2022-12-18T05:16:02;-4.90;99.90
59923;DHT22;45778;51.142;3.732;2022-12-18T05:18:28;-4.90;99.90
59923;DHT22;45778;51.142;3.732;2022-12-18T05:20:54;-5.00;99.90
59923;DHT22;45778;51.142;3.732;2022-12-18T05:23:21;-5.00;99.90
59923;DHT22;45778;51.142;3.732;2022-12-18T05:25:52;-5.00;99.90
59923;DHT22;45778;51.142;3.732;2022-12-18T05:28:19;-5.00;99.90
59923;DHT22;45778;51.142;3.732;2022-12-18T05:30:53;-5.10;99.90
59923;DHT22;45778;51.142;3.732;2022-12-18T05:33:20;-5.00;99.90
59923;DHT22;45778;51.142;3.732;2022-12-18T05:35:51;-5.00;99.90
59923;DHT22;45778;51.142;3.732;2022-12-18T05:38:17;-5.00;99.90
59923;DHT22;45778;51.142;3.732;2022-12-18T05:40:44;-4.70;99.90
59923;DHT22;45778;51.142;3.732;2022-12-18T05:43:10;-5.00;99.90
59923;DHT22;45778;51.142;3.732;2022-12-18T05:45:39;-5.00;99.90
59923;DHT22;45778;51.142;3.732;2022-12-18T05:48:06;-5.10;99.90
59923;DHT22;45778;51.142;3.732;2022-12-18T05:50:36;-4.40;99.90
59923;DHT22;45778;51.142;3.732;2022-12-18T05:53:03;-5.10;99.90
59923;DHT22;45778;51.142;3.732;2022-12-18T05:55:28;-5.20;99.90
59923;DHT22;45778;51.142;3.732;2022-12-18T05:57:54;-5.00;99.90
59923;DHT22;45778;51.142;3.732;2022-12-18T06:00:20;-5.00;99.90
59923;DHT22;45778;51.142;3.732;2022-12-18T06:02:48;-4.90;99.90
59923;DHT22;45778;51.142;3.732;2022-12-18T06:05:14;-4.90;99.90
59923;DHT22;45778;51.142;3.732;2022-12-18T06:07:40;-4.80;99.90
59923;DHT22;45778;51.142;3.732;2022-12-18T06:10:06;-4.90;99.90
59923;DHT22;45778;51.142;3.732;2022-12-18T06:12:32;-4.90;99.90
59923;DHT22;45778;51.142;3.732;2022-12-18T06:14:59;-4.90;99.90
59923;DHT22;45778;51.142;3.732;2022-12-18T06:17:30;-4.90;99.90
59923;DHT22;45778;51.142;3.732;2022-12-18T06:19:56;-4.90;99.90
59923;DHT22;45778;51.142;3.732;2022-12-18T06:22:21;-4.70;99.90
59923;DHT22;45778;51.142;3.732;2022-12-18T06:24:47;-4.40;99.90
59923;DHT22;45778;51.142;3.732;2022-12-18T06:27:13;-4.90;99.90
59923;DHT22;45778;51.142;3.732;2022-12-18T06:29:38;-4.90;99.90
59923;DHT22;45778;51.142;3.732;2022-12-18T06:32:04;-4.90;99.90
59923;DHT22;45778;51.142;3.732;2022-12-18T06:34:30;-4.60;99.90
59923;DHT22;45778;51.142;3.732;2022-12-18T06:36:56;-4.50;99.90
59923;DHT22;45778;51.142;3.732;2022-12-18T06:39:22;-4.70;99.90
59923;DHT22;45778;51.142;3.732;2022-12-18T06:41:47;-4.70;99.90
59923;DHT22;45778;51.142;3.732;2022-12-18T06:44:13;-4.60;99.90
59923;DHT22;45778;51.142;3.732;2022-12-18T06:46:38;-4.70;99.90
59923;DHT22;45778;51.142;3.732;2022-12-18T06:49:04;-4.60;99.90
59923;DHT22;45778;51.142;3.732;2022-12-18T06:51:30;-4.60;99.90
59923;DHT22;45778;51.142;3.732;2022-12-18T06:53:56;-4.70;99.90
59923;DHT22;45778;51.142;3.732;2022-12-18T06:56:21;-4.50;99.90
59923;DHT22;45778;51.142;3.732;2022-12-18T06:58:50;-4.60;99.90
59923;DHT22;45778;51.142;3.732;2022-12-18T07:01:16;-4.60;99.90
59923;DHT22;45778;51.142;3.732;2022-12-18T07:03:42;-4.60;99.90
59923;DHT22;45778;51.142;3.732;2022-12-18T07:06:16;-4.50;99.90
59923;DHT22;45778;51.142;3.732;2022-12-18T07:08:42;-4.60;99.90
59923;DHT22;45778;51.142;3.732;2022-12-18T07:11:08;-4.50;99.90
59923;DHT22;45778;51.142;3.732;2022-12-18T07:13:34;-4.60;99.90
59923;DHT22;45778;51.142;3.732;2022-12-18T07:16:07;-4.70;99.90
59923;DHT22;45778;51.142;3.732;2022-12-18T07:18:33;-4.70;99.90
59923;DHT22;45778;51.142;3.732;2022-12-18T07:21:06;-4.60;99.90
59923;DHT22;45778;51.142;3.732;2022-12-18T07:23:33;-4.60;99.90
59923;DHT22;45778;51.142;3.732;2022-12-18T07:26:04;-4.60;99.90
59923;DHT22;45778;51.142;3.732;2022-12-18T07:28:31;-4.60;99.90
59923;DHT22;45778;51.142;3.732;2022-12-18T07:30:57;-4.50;99.90
59923;DHT22;45778;51.142;3.732;2022-12-18T07:33:24;-4.60;99.90
59923;DHT22;45778;51.142;3.732;2022-12-18T07:35:50;-4.60;99.90
59923;DHT22;45778;51.142;3.732;2022-12-18T07:38:15;-4.40;99.90
59923;DHT22;45778;51.142;3.732;2022-12-18T07:40:41;-4.40;99.90
59923;DHT22;45778;51.142;3.732;2022-12-18T07:43:07;-4.50;99.90
59923;DHT22;45778;51.142;3.732;2022-12-18T07:45:32;-4.60;99.90
59923;DHT22;45778;51.142;3.732;2022-12-18T07:47:58;-4.40;99.90
59923;DHT22;45778;51.142;3.732;2022-12-18T07:50:24;-4.30;99.90
59923;DHT22;45778;51.142;3.732;2022-12-18T07:52:49;-4.60;99.90
59923;DHT22;45778;51.142;3.732;2022-12-18T07:55:15;-4.70;99.90
59923;DHT22;45778;51.142;3.732;2022-12-18T07:57:41;-4.70;99.90
59923;DHT22;45778;51.142;3.732;2022-12-18T08:00:07;-4.50;99.90
59923;DHT22;45778;51.142;3.732;2022-12-18T08:02:33;-4.70;99.90
59923;DHT22;45778;51.142;3.732;2022-12-18T08:04:59;-4.70;99.90
59923;DHT22;45778;51.142;3.732;2022-12-18T08:07:24;-4.70;99.90
59923;DHT22;45778;51.142;3.732;2022-12-18T08:09:50;-4.70;99.90
59923;DHT22;45778;51.142;3.732;2022-12-18T08:12:17;-4.70;99.90
59923;DHT22;45778;51.142;3.732;2022-12-18T08:14:42;-4.70;99.90
59923;DHT22;45778;51.142;3.732;2022-12-18T08:17:08;-4.60;99.90
59923;DHT22;45778;51.142;3.732;2022-12-18T08:19:34;-4.60;99.90
59923;DHT22;45778;51.142;3.732;2022-12-18T08:22:00;-4.50;99.90
59923;DHT22;45778;51.142;3.732;2022-12-18T08:24:25;-4.40;99.90
59923;DHT22;45778;51.142;3.732;2022-12-18T08:26:51;-4.40;99.90
59923;DHT22;45778;51.142;3.732;2022-12-18T08:29:17;-4.30;99.90
59923;DHT22;45778;51.142;3.732;2022-12-18T08:31:42;-4.20;99.90
59923;DHT22;45778;51.142;3.732;2022-12-18T08:34:08;-4.10;99.90
59923;DHT22;45778;51.142;3.732;2022-12-18T08:36:35;-3.90;99.90
59923;DHT22;45778;51.142;3.732;2022-12-18T08:39:00;-3.70;99.90
59923;DHT22;45778;51.142;3.732;2022-12-18T08:41:26;-3.60;99.90
59923;DHT22;45778;51.142;3.732;2022-12-18T08:43:52;-3.50;99.90
59923;DHT22;45778;51.142;3.732;2022-12-18T08:46:41;-3.40;99.90
59923;DHT22;45778;51.142;3.732;2022-12-18T08:49:08;-3.30;99.90
59923;DHT22;45778;51.142;3.732;2022-12-18T08:51:35;-3.20;99.90
59923;DHT22;45778;51.142;3.732;2022-12-18T08:54:01;-3.20;99.90
59923;DHT22;45778;51.142;3.732;2022-12-18T08:56:27;-3.20;99.90
59923;DHT22;45778;51.142;3.732;2022-12-18T08:58:53;-3.10;99.90
59923;DHT22;45778;51.142;3.732;2022-12-18T09:01:20;-3.20;99.90
59923;DHT22;45778;51.142;3.732;2022-12-18T09:03:48;-3.20;99.90
59923;DHT22;45778;51.142;3.732;2022-12-18T09:06:15;-3.20;99.90
59923;DHT22;45778;51.142;3.732;2022-12-18T09:08:42;-3.10;99.90
59923;DHT22;45778;51.142;3.732;2022-12-18T09:11:22;-3.00;99.90
59923;DHT22;45778;51.142;3.732;2022-12-18T09:13:48;-3.00;99.90
59923;DHT22;45778;51.142;3.732;2022-12-18T09:16:15;-2.90;99.90
59923;DHT22;45778;51.142;3.732;2022-12-18T09:18:41;-2.70;99.90
59923;DHT22;45778;51.142;3.732;2022-12-18T09:21:11;-2.70;99.90
59923;DHT22;45778;51.142;3.732;2022-12-18T09:23:37;-2.70;99.90
59923;DHT22;45778;51.142;3.732;2022-12-18T09:26:03;-2.80;99.90
59923;DHT22;45778;51.142;3.732;2022-12-18T09:28:29;-2.80;99.90
59923;DHT22;45778;51.142;3.732;2022-12-18T09:30:55;-2.80;99.90
59923;DHT22;45778;51.142;3.732;2022-12-18T09:33:21;-2.70;99.90
59923;DHT22;45778;51.142;3.732;2022-12-18T09:35:46;-2.50;99.90
59923;DHT22;45778;51.142;3.732;2022-12-18T09:38:14;-2.20;99.90
59923;DHT22;45778;51.142;3.732;2022-12-18T09:40:53;-2.00;99.90
59923;DHT22;45778;51.142;3.732;2022-12-18T09:43:28;-2.00;99.90
59923;DHT22;45778;51.142;3.732;2022-12-18T09:46:01;-1.80;99.90
59923;DHT22;45778;51.142;3.732;2022-12-18T09:48:32;-1.90;99.90
59923;DHT22;45778;51.142;3.732;2022-12-18T09:51:04;-1.90;99.90
59923;DHT22;45778;51.142;3.732;2022-12-18T09:53:34;-1.80;99.90
59923;DHT22;45778;51.142;3.732;2022-12-18T09:56:03;-1.60;99.90
59923;DHT22;45778;51.142;3.732;2022-12-18T09:58:35;-1.60;99.90
59923;DHT22;45778;51.142;3.732;2022-12-18T10:01:23;-1.50;99.90
59923;DHT22;45778;51.142;3.732;2022-12-18T10:03:49;-1.80;99.90
59923;DHT22;45778;51.142;3.732;2022-12-18T10:12:16;-1.40;99.90
59923;DHT22;45778;51.142;3.732;2022-12-18T10:17:39;-1.40;99.90
59923;DHT22;45778;51.142;3.732;2022-12-18T10:20:13;-1.20;99.90
59923;DHT22;45778;51.142;3.732;2022-12-18T10:28:11;-1.50;99.90
59923;DHT22;45778;51.142;3.732;2022-12-18T10:30:39;-1.50;99.90
59923;DHT22;45778;51.142;3.732;2022-12-18T10:33:05;-1.60;99.90
59923;DHT22;45778;51.142;3.732;2022-12-18T10:35:31;-1.70;99.90
59923;DHT22;45778;51.142;3.732;2022-12-18T10:43:29;-1.50;99.90
59923;DHT22;45778;51.142;3.732;2022-12-18T10:48:32;-1.50;99.90
59923;DHT22;45778;51.142;3.732;2022-12-18T10:50:59;-1.50;99.90
59923;DHT22;45778;51.142;3.732;2022-12-18T10:53:28;-1.50;99.90
59923;DHT22;45778;51.142;3.732;2022-12-18T10:55:56;-1.40;99.90
59923;DHT22;45778;51.142;3.732;2022-12-18T10:58:37;-1.20;99.90
59923;DHT22;45778;51.142;3.732;2022-12-18T11:01:18;-1.40;99.90
59923;DHT22;45778;51.142;3.732;2022-12-18T11:06:22;-1.60;99.90
59923;DHT22;45778;51.142;3.732;2022-12-18T11:09:18;-1.10;99.90
59923;DHT22;45778;51.142;3.732;2022-12-18T11:11:56;-1.20;99.90
59923;DHT22;45778;51.142;3.732;2022-12-18T11:14:31;-1.20;99.90
59923;DHT22;45778;51.142;3.732;2022-12-18T11:16:59;-1.60;99.90
59923;DHT22;45778;51.142;3.732;2022-12-18T11:21:57;-1.50;99.90
59923;DHT22;45778;51.142;3.732;2022-12-18T11:26:59;-1.50;99.90
59923;DHT22;45778;51.142;3.732;2022-12-18T11:29:38;-1.40;99.90
59923;DHT22;45778;51.142;3.732;2022-12-18T11:32:29;-1.50;99.90
59923;DHT22;45778;51.142;3.732;2022-12-18T11:37:39;-1.40;99.90
59923;DHT22;45778;51.142;3.732;2022-12-18T11:40:12;-1.20;99.90
59923;DHT22;45778;51.142;3.732;2022-12-18T11:42:48;-1.30;99.90
59923;DHT22;45778;51.142;3.732;2022-12-18T11:45:21;-0.80;99.90
59923;DHT22;45778;51.142;3.732;2022-12-18T11:50:53;-1.20;99.90
59923;DHT22;45778;51.142;3.732;2022-12-18T11:53:20;-1.10;99.90
59923;DHT22;45778;51.142;3.732;2022-12-18T12:17:49;-0.60;99.90
59923;DHT22;45778;51.142;3.732;2022-12-18T12:39:44;0.00;99.90
59923;DHT22;45778;51.142;3.732;2022-12-18T12:42:18;-0.10;99.90
59923;DHT22;45778;51.142;3.732;2022-12-18T12:45:06;0.10;99.90
59923;DHT22;45778;51.142;3.732;2022-12-18T12:47:37;0.10;99.90
59923;DHT22;45778;51.142;3.732;2022-12-18T12:50:11;0.20;99.90
59923;DHT22;45778;51.142;3.732;2022-12-18T12:52:45;0.20;99.90
59923;DHT22;45778;51.142;3.732;2022-12-18T12:55:21;0.00;99.90
59923;DHT22;45778;51.142;3.732;2022-12-18T13:00:20;-0.20;99.90
59923;DHT22;45778;51.142;3.732;2022-12-18T13:03:19;-0.10;99.90
59923;DHT22;45778;51.142;3.732;2022-12-18T13:06:03;-0.30;99.90
59923;DHT22;45778;51.142;3.732;2022-12-18T13:08:34;-0.30;99.90
59923;DHT22;45778;51.142;3.732;2022-12-18T13:11:36;-0.30;99.90
59923;DHT22;45778;51.142;3.732;2022-12-18T13:14:24;-0.20;99.90
59923;DHT22;45778;51.142;3.732;2022-12-18T13:16:50;0.60;99.90
59923;DHT22;45778;51.142;3.732;2022-12-18T13:19:23;-0.10;99.90
59923;DHT22;45778;51.142;3.732;2022-12-18T13:21:55;0.00;99.90
59923;DHT22;45778;51.142;3.732;2022-12-18T13:24:25;-0.20;99.90
59923;DHT22;45778;51.142;3.732;2022-12-18T13:26:51;-0.30;99.90
59923;DHT22;45778;51.142;3.732;2022-12-18T13:32:20;-0.30;99.90
59923;DHT22;45778;51.142;3.732;2022-12-18T13:34:46;-0.20;99.90
59923;DHT22;45778;51.142;3.732;2022-12-18T13:39:56;0.10;99.90
59923;DHT22;45778;51.142;3.732;2022-12-18T13:42:36;-0.30;99.90
59923;DHT22;45778;51.142;3.732;2022-12-18T13:45:41;-0.20;99.90
59923;DHT22;45778;51.142;3.732;2022-12-18T13:48:23;-0.30;99.90
59923;DHT22;45778;51.142;3.732;2022-12-18T13:53:29;-0.30;99.90
59923;DHT22;45778;51.142;3.732;2022-12-18T13:55:55;-0.20;99.90
59923;DHT22;45778;51.142;3.732;2022-12-18T13:58:21;0.10;99.90
59923;DHT22;45778;51.142;3.732;2022-12-18T14:00:47;0.10;99.90
59923;DHT22;45778;51.142;3.732;2022-12-18T14:03:25;-0.10;99.90
59923;DHT22;45778;51.142;3.732;2022-12-18T14:05:56;-0.10;99.90
59923;DHT22;45778;51.142;3.732;2022-12-18T14:08:34;0.00;99.90
59923;DHT22;45778;51.142;3.732;2022-12-18T14:11:01;0.50;99.90
59923;DHT22;45778;51.142;3.732;2022-12-18T14:13:30;0.10;99.90
59923;DHT22;45778;51.142;3.732;2022-12-18T14:15:57;0.10;99.90
59923;DHT22;45778;51.142;3.732;2022-12-18T14:21:33;-0.10;99.90
59923;DHT22;45778;51.142;3.732;2022-12-18T14:24:26;-0.20;99.90
59923;DHT22;45778;51.142;3.732;2022-12-18T14:26:53;-0.10;99.90
59923;DHT22;45778;51.142;3.732;2022-12-18T14:29:30;-0.10;99.90
59923;DHT22;45778;51.142;3.732;2022-12-18T14:34:37;0.00;99.90
59923;DHT22;45778;51.142;3.732;2022-12-18T14:37:04;0.10;99.90
59923;DHT22;45778;51.142;3.732;2022-12-18T14:39:29;0.00;99.90
59923;DHT22;45778;51.142;3.732;2022-12-18T14:41:55;0.00;99.90
59923;DHT22;45778;51.142;3.732;2022-12-18T14:44:21;0.00;99.90
59923;DHT22;45778;51.142;3.732;2022-12-18T14:46:48;0.00;99.90
59923;DHT22;45778;51.142;3.732;2022-12-18T14:49:22;0.00;99.90
59923;DHT22;45778;51.142;3.732;2022-12-18T14:51:52;0.00;99.90
59923;DHT22;45778;51.142;3.732;2022-12-18T14:54:19;0.00;99.90
59923;DHT22;45778;51.142;3.732;2022-12-18T14:56:51;0.20;99.90
59923;DHT22;45778;51.142;3.732;2022-12-18T14:59:22;0.10;99.90
59923;DHT22;45778;51.142;3.732;2022-12-18T15:04:42;0.10;99.90
59923;DHT22;45778;51.142;3.732;2022-12-18T15:07:22;0.20;99.90
59923;DHT22;45778;51.142;3.732;2022-12-18T15:12:38;0.20;99.90
59923;DHT22;45778;51.142;3.732;2022-12-18T15:15:05;0.20;99.90
59923;DHT22;45778;51.142;3.732;2022-12-18T15:17:57;0.20;99.90
59923;DHT22;45778;51.142;3.732;2022-12-18T15:20:23;0.30;99.90
59923;DHT22;45778;51.142;3.732;2022-12-18T15:22:49;0.10;99.90
59923;DHT22;45778;51.142;3.732;2022-12-18T15:25:32;0.20;99.90
59923;DHT22;45778;51.142;3.732;2022-12-18T15:27:57;0.20;99.90
59923;DHT22;45778;51.142;3.732;2022-12-18T15:30:26;0.40;99.90
59923;DHT22;45778;51.142;3.732;2022-12-18T15:32:55;0.30;99.90
59923;DHT22;45778;51.142;3.732;2022-12-18T15:35:38;0.30;99.90
59923;DHT22;45778;51.142;3.732;2022-12-18T15:38:04;0.20;99.90
59923;DHT22;45778;51.142;3.732;2022-12-18T15:40:29;0.20;99.90
59923;DHT22;45778;51.142;3.732;2022-12-18T15:42:55;0.20;99.90
59923;DHT22;45778;51.142;3.732;2022-12-18T15:45:40;0.20;99.90
59923;DHT22;45778;51.142;3.732;2022-12-18T15:48:21;0.30;99.90
59923;DHT22;45778;51.142;3.732;2022-12-18T15:50:47;0.30;99.90
59923;DHT22;45778;51.142;3.732;2022-12-18T15:53:13;0.40;99.90
59923;DHT22;45778;51.142;3.732;2022-12-18T15:55:38;0.50;99.90
59923;DHT22;45778;51.142;3.732;2022-12-18T15:58:23;0.50;99.90
59923;DHT22;45778;51.142;3.732;2022-12-18T16:00:48;1.00;99.90
59923;DHT22;45778;51.142;3.732;2022-12-18T16:03:14;0.60;99.90
59923;DHT22;45778;51.142;3.732;2022-12-18T16:05:40;0.60;99.90
59923;DHT22;45778;51.142;3.732;2022-12-18T16:08:05;1.20;99.90
59923;DHT22;45778;51.142;3.732;2022-12-18T16:10:31;0.50;99.90
59923;DHT22;45778;51.142;3.732;2022-12-18T16:12:57;1.00;99.90
59923;DHT22;45778;51.142;3.732;2022-12-18T16:15:23;0.40;99.90
59923;DHT22;45778;51.142;3.732;2022-12-18T16:17:48;0.40;99.90
59923;DHT22;45778;51.142;3.732;2022-12-18T16:20:17;0.50;99.90
59923;DHT22;45778;51.142;3.732;2022-12-18T16:22:44;0.40;99.90
59923;DHT22;45778;51.142;3.732;2022-12-18T16:25:22;0.50;99.90
59923;DHT22;45778;51.142;3.732;2022-12-18T16:27:49;0.60;99.90
59923;DHT22;45778;51.142;3.732;2022-12-18T16:30:20;0.50;99.90
59923;DHT22;45778;51.142;3.732;2022-12-18T16:32:46;0.50;99.90
59923;DHT22;45778;51.142;3.732;2022-12-18T16:35:13;0.60;99.90
59923;DHT22;45778;51.142;3.732;2022-12-18T16:37:40;0.60;99.90
59923;DHT22;45778;51.142;3.732;2022-12-18T16:40:08;0.50;99.90
59923;DHT22;45778;51.142;3.732;2022-12-18T16:42:36;0.50;99.90
59923;DHT22;45778;51.142;3.732;2022-12-18T16:45:02;1.10;99.90
59923;DHT22;45778;51.142;3.732;2022-12-18T16:47:28;0.60;99.90
59923;DHT22;45778;51.142;3.732;2022-12-18T16:49:54;0.60;99.90
59923;DHT22;45778;51.142;3.732;2022-12-18T16:52:20;1.20;99.90
59923;DHT22;45778;51.142;3.732;2022-12-18T16:54:46;0.60;99.90
59923;DHT22;45778;51.142;3.732;2022-12-18T16:57:15;0.50;99.90
59923;DHT22;45778;51.142;3.732;2022-12-18T16:59:41;0.70;99.90
59923;DHT22;45778;51.142;3.732;2022-12-18T17:02:20;0.60;99.90
59923;DHT22;45778;51.142;3.732;2022-12-18T17:04:47;0.70;99.90
59923;DHT22;45778;51.142;3.732;2022-12-18T17:07:13;0.80;99.90
59923;DHT22;45778;51.142;3.732;2022-12-18T17:09:40;1.40;99.90
59923;DHT22;45778;51.142;3.732;2022-12-18T17:12:06;0.80;99.90
59923;DHT22;45778;51.142;3.732;2022-12-18T17:14:33;0.70;99.90
59923;DHT22;45778;51.142;3.732;2022-12-18T17:16:59;0.60;99.90
59923;DHT22;45778;51.142;3.732;2022-12-18T17:19:26;0.60;99.90
59923;DHT22;45778;51.142;3.732;2022-12-18T17:21:52;0.60;99.90
59923;DHT22;45778;51.142;3.732;2022-12-18T17:24:18;0.70;99.90
59923;DHT22;45778;51.142;3.732;2022-12-18T17:26:44;0.70;99.90
59923;DHT22;45778;51.142;3.732;2022-12-18T17:29:18;0.70;99.90
59923;DHT22;45778;51.142;3.732;2022-12-18T17:31:45;0.70;99.90
59923;DHT22;45778;51.142;3.732;2022-12-18T17:34:11;0.70;99.90
59923;DHT22;45778;51.142;3.732;2022-12-18T17:36:37;0.90;99.90
59923;DHT22;45778;51.142;3.732;2022-12-18T17:39:05;0.80;99.90
59923;DHT22;45778;51.142;3.732;2022-12-18T17:41:31;0.70;99.90
59923;DHT22;45778;51.142;3.732;2022-12-18T17:43:59;0.70;99.90
59923;DHT22;45778;51.142;3.732;2022-12-18T17:46:26;0.80;99.90
59923;DHT22;45778;51.142;3.732;2022-12-18T17:48:55;0.70;99.90
59923;DHT22;45778;51.142;3.732;2022-12-18T17:51:21;0.70;99.90
59923;DHT22;45778;51.142;3.732;2022-12-18T17:53:47;0.60;99.90